sensor_id;sensor_type;location;lat;lon;timestamp;temperature;humidity
51793;DHT22;37850;53.178;6.376;2023-01-01T00:01:11;13.60;99.90
51793;DHT22;37850;53.178;6.376;2023-01-01T00:03:37;13.60;99.90
51793;DHT22;37850;53.178;6.376;2023-01-01T00:06:11;13.60;99.90
51793;DHT22;37850;53.178;6.376;2023-01-01T00:08:37;13.60;99.90
51793;DHT22;37850;53.178;6.376;2023-01-01T00:11:05;13.60;99.90
51793;DHT22;37850;53.178;6.376;2023-01-01T00:13:32;13.60;99.90
51793;DHT22;37850;53.178;6.376;2023-01-01T00:16:24;13.60;99.90
51793;DHT22;37850;53.178;6.376;2023-01-01T00:18:50;13.60;99.90
51793;DHT22;37850;53.178;6.376;2023-01-01T00:21:16;13.60;99.90
51793;DHT22;37850;53.178;6.376;2023-01-01T00:23:42;13.60;99.90
51793;DHT22;37850;53.178;6.376;2023-01-01T00:26:13;13.60;99.90
51793;DHT22;37850;53.178;6.376;2023-01-01T00:28:39;13.60;99.90
51793;DHT22;37850;53.178;6.376;2023-01-01T00:31:09;13.60;99.90
51793;DHT22;37850;53.178;6.376;2023-01-01T00:33:36;13.60;99.90
51793;DHT22;37850;53.178;6.376;2023-01-01T00:36:13;13.60;99.90
51793;DHT22;37850;53.178;6.376;2023-01-01T00:38:39;13.60;99.90
51793;DHT22;37850;53.178;6.376;2023-01-01T00:41:05;13.60;99.90
51793;DHT22;37850;53.178;6.376;2023-01-01T00:43:31;13.50;99.90
51793;DHT22;37850;53.178;6.376;2023-01-01T00:45:57;13.70;99.90
51793;DHT22;37850;53.178;6.376;2023-01-01T00:48:23;13.60;99.90
51793;DHT22;37850;53.178;6.376;2023-01-01T00:50:50;13.60;99.90
51793;DHT22;37850;53.178;6.376;2023-01-01T00:53:17;13.60;99.90
51793;DHT22;37850;53.178;6.376;2023-01-01T00:55:43;13.50;99.90
51793;DHT22;37850;53.178;6.376;2023-01-01T00:58:10;13.50;99.90
51793;DHT22;37850;53.178;6.376;2023-01-01T01:00:36;13.50;99.90
51793;DHT22;37850;53.178;6.376;2023-01-01T01:03:02;13.50;99.90
51793;DHT22;37850;53.178;6.376;2023-01-01T01:05:28;13.40;99.90
51793;DHT22;37850;53.178;6.376;2023-01-01T01:07:54;13.40;99.90
51793;DHT22;37850;53.178;6.376;2023-01-01T01:10:22;13.30;99.90
51793;DHT22;37850;53.178;6.376;2023-01-01T01:12:51;13.30;99.90
51793;DHT22;37850;53.178;6.376;2023-01-01T01:15:17;13.30;99.90
51793;DHT22;37850;53.178;6.376;2023-01-01T01:17:44;13.20;99.90
51793;DHT22;37850;53.178;6.376;2023-01-01T01:20:10;13.20;99.90
51793;DHT22;37850;53.178;6.376;2023-01-01T01:22:37;13.20;99.90
51793;DHT22;37850;53.178;6.376;2023-01-01T01:25:03;13.20;99.90
51793;DHT22;37850;53.178;6.376;2023-01-01T01:27:30;13.20;99.90
51793;DHT22;37850;53.178;6.376;2023-01-01T01:29:56;13.10;99.90
51793;DHT22;37850;53.178;6.376;2023-01-01T01:32:21;13.10;99.90
51793;DHT22;37850;53.178;6.376;2023-01-01T01:34:47;13.00;99.90
51793;DHT22;37850;53.178;6.376;2023-01-01T01:37:13;13.00;99.90
51793;DHT22;37850;53.178;6.376;2023-01-01T01:39:39;12.90;99.90
51793;DHT22;37850;53.178;6.376;2023-01-01T01:42:05;12.90;99.90
51793;DHT22;37850;53.178;6.376;2023-01-01T01:44:59;12.80;99.90
51793;DHT22;37850;53.178;6.376;2023-01-01T01:50:13;12.80;99.90
51793;DHT22;37850;53.178;6.376;2023-01-01T01:52:54;12.70;99.90
51793;DHT22;37850;53.178;6.376;2023-01-01T01:55:22;12.70;99.90
51793;DHT22;37850;53.178;6.376;2023-01-01T01:57:49;12.70;99.90
51793;DHT22;37850;53.178;6.376;2023-01-01T02:00:15;12.60;99.90
51793;DHT22;37850;53.178;6.376;2023-01-01T02:02:49;12.60;99.90
51793;DHT22;37850;53.178;6.376;2023-01-01T02:05:22;12.60;99.90
51793;DHT22;37850;53.178;6.376;2023-01-01T02:07:48;12.50;99.90
51793;DHT22;37850;53.178;6.376;2023-01-01T02:10:15;12.50;99.90
51793;DHT22;37850;53.178;6.376;2023-01-01T02:12:41;12.50;99.90
51793;DHT22;37850;53.178;6.376;2023-01-01T02:15:08;12.40;99.90
51793;DHT22;37850;53.178;6.376;2023-01-01T02:17:47;12.50;99.90
51793;DHT22;37850;53.178;6.376;2023-01-01T02:20:48;12.40;99.90
51793;DHT22;37850;53.178;6.376;2023-01-01T02:31:43;12.40;99.90
51793;DHT22;37850;53.178;6.376;2023-01-01T02:34:13;12.40;99.90
51793;DHT22;37850;53.178;6.376;2023-01-01T02:36:44;12.40;99.90
51793;DHT22;37850;53.178;6.376;2023-01-01T02:39:13;12.40;99.90
51793;DHT22;37850;53.178;6.376;2023-01-01T02:41:43;12.40;99.90
51793;DHT22;37850;53.178;6.376;2023-01-01T02:44:10;12.40;99.90
51793;DHT22;37850;53.178;6.376;2023-01-01T02:46:36;12.40;99.90
51793;DHT22;37850;53.178;6.376;2023-01-01T02:49:02;12.40;99.90
51793;DHT22;37850;53.178;6.376;2023-01-01T02:52:07;12.40;99.90
51793;DHT22;37850;53.178;6.376;2023-01-01T02:54:59;12.40;99.90
51793;DHT22;37850;53.178;6.376;2023-01-01T02:57:37;12.30;99.90
51793;DHT22;37850;53.178;6.376;2023-01-01T03:00:08;12.30;99.90
51793;DHT22;37850;53.178;6.376;2023-01-01T03:03:41;12.30;99.90
51793;DHT22;37850;53.178;6.376;2023-01-01T03:06:19;12.20;99.90
51793;DHT22;37850;53.178;6.376;2023-01-01T03:09:23;12.20;99.90
51793;DHT22;37850;53.178;6.376;2023-01-01T03:12:05;12.20;99.90
51793;DHT22;37850;53.178;6.376;2023-01-01T03:14:45;12.20;99.90
51793;DHT22;37850;53.178;6.376;2023-01-01T03:17:35;12.40;99.90
51793;DHT22;37850;53.178;6.376;2023-01-01T03:20:10;12.10;99.90
51793;DHT22;37850;53.178;6.376;2023-01-01T03:22:38;12.00;99.90
51793;DHT22;37850;53.178;6.376;2023-01-01T03:25:11;12.00;99.90
51793;DHT22;37850;53.178;6.376;2023-01-01T03:27:43;12.00;99.90
51793;DHT22;37850;53.178;6.376;2023-01-01T03:30:11;11.90;99.90
51793;DHT22;37850;53.178;6.376;2023-01-01T03:32:46;11.90;99.90
51793;DHT22;37850;53.178;6.376;2023-01-01T03:37:59;11.80;99.90
51793;DHT22;37850;53.178;6.376;2023-01-01T03:40:27;11.70;99.90
51793;DHT22;37850;53.178;6.376;2023-01-01T03:42:58;11.70;99.90
51793;DHT22;37850;53.178;6.376;2023-01-01T03:45:32;11.70;99.90
51793;DHT22;37850;53.178;6.376;2023-01-01T03:48:00;11.70;99.90
51793;DHT22;37850;53.178;6.376;2023-01-01T03:58:40;11.60;99.90
51793;DHT22;37850;53.178;6.376;2023-01-01T04:01:17;11.50;99.90
51793;DHT22;37850;53.178;6.376;2023-01-01T04:03:47;11.50;99.90
51793;DHT22;37850;53.178;6.376;2023-01-01T04:06:14;11.50;99.90
51793;DHT22;37850;53.178;6.376;2023-01-01T04:08:40;11.50;99.90
51793;DHT22;37850;53.178;6.376;2023-01-01T04:11:17;11.50;99.90
51793;DHT22;37850;53.178;6.376;2023-01-01T04:14:03;11.50;99.90
51793;DHT22;37850;53.178;6.376;2023-01-01T04:16:29;11.50;99.90
51793;DHT22;37850;53.178;6.376;2023-01-01T04:18:55;11.50;99.90
51793;DHT22;37850;53.178;6.376;2023-01-01T04:21:20;11.60;99.90
51793;DHT22;37850;53.178;6.376;2023-01-01T04:23:46;11.50;99.90
51793;DHT22;37850;53.178;6.376;2023-01-01T04:26:13;11.60;99.90
51793;DHT22;37850;53.178;6.376;2023-01-01T04:28:39;11.50;99.90
51793;DHT22;37850;53.178;6.376;2023-01-01T04:31:06;11.60;99.90
51793;DHT22;37850;53.178;6.376;2023-01-01T04:33:31;11.60;99.90
51793;DHT22;37850;53.178;6.376;2023-01-01T04:36:08;11.60;99.90
51793;DHT22;37850;53.178;6.376;2023-01-01T04:38:34;11.60;99.90
51793;DHT22;37850;53.178;6.376;2023-01-01T04:41:02;11.60;99.90
51793;DHT22;37850;53.178;6.376;2023-01-01T04:43:29;11.60;99.90
51793;DHT22;37850;53.178;6.376;2023-01-01T04:45:59;11.60;99.90
51793;DHT22;37850;53.178;6.376;2023-01-01T04:48:26;11.60;99.90
51793;DHT22;37850;53.178;6.376;2023-01-01T04:51:00;11.60;99.90
51793;DHT22;37850;53.178;6.376;2023-01-01T04:53:29;11.60;99.90
51793;DHT22;37850;53.178;6.376;2023-01-01T04:55:55;11.60;99.90
51793;DHT22;37850;53.178;6.376;2023-01-01T04:58:21;11.60;99.90
51793;DHT22;37850;53.178;6.376;2023-01-01T05:00:48;11.50;99.90
51793;DHT22;37850;53.178;6.376;2023-01-01T05:03:14;11.50;99.90
51793;DHT22;37850;53.178;6.376;2023-01-01T05:05:40;11.40;99.90
51793;DHT22;37850;53.178;6.376;2023-01-01T05:08:06;11.40;99.90
51793;DHT22;37850;53.178;6.376;2023-01-01T05:10:32;11.40;99.90
51793;DHT22;37850;53.178;6.376;2023-01-01T05:12:57;11.40;99.90
51793;DHT22;37850;53.178;6.376;2023-01-01T05:15:23;11.40;99.90
51793;DHT22;37850;53.178;6.376;2023-01-01T05:17:49;11.40;99.90
51793;DHT22;37850;53.178;6.376;2023-01-01T05:20:17;11.50;99.90
51793;DHT22;37850;53.178;6.376;2023-01-01T05:22:45;11.40;99.90
51793;DHT22;37850;53.178;6.376;2023-01-01T05:25:11;11.40;99.90
51793;DHT22;37850;53.178;6.376;2023-01-01T05:27:37;11.40;99.90
51793;DHT22;37850;53.178;6.376;2023-01-01T05:30:03;11.70;99.90
51793;DHT22;37850;53.178;6.376;2023-01-01T05:32:28;11.40;99.90
51793;DHT22;37850;53.178;6.376;2023-01-01T05:34:54;11.40;99.90
51793;DHT22;37850;53.178;6.376;2023-01-01T05:37:21;11.40;99.90
51793;DHT22;37850;53.178;6.376;2023-01-01T05:39:46;11.50;99.90
51793;DHT22;37850;53.178;6.376;2023-01-01T05:42:13;11.50;99.90
51793;DHT22;37850;53.178;6.376;2023-01-01T05:44:40;11.50;99.90
51793;DHT22;37850;53.178;6.376;2023-01-01T05:47:05;11.50;99.90
51793;DHT22;37850;53.178;6.376;2023-01-01T05:49:31;11.50;99.90
51793;DHT22;37850;53.178;6.376;2023-01-01T05:51:57;11.50;99.90
51793;DHT22;37850;53.178;6.376;2023-01-01T05:54:23;11.40;99.90
51793;DHT22;37850;53.178;6.376;2023-01-01T05:56:48;11.50;99.90
51793;DHT22;37850;53.178;6.376;2023-01-01T05:59:17;11.50;99.90
51793;DHT22;37850;53.178;6.376;2023-01-01T06:01:43;11.40;99.90
51793;DHT22;37850;53.178;6.376;2023-01-01T06:04:09;11.50;99.90
51793;DHT22;37850;53.178;6.376;2023-01-01T06:06:34;11.40;99.90
51793;DHT22;37850;53.178;6.376;2023-01-01T06:09:02;11.40;99.90
51793;DHT22;37850;53.178;6.376;2023-01-01T06:11:29;11.40;99.90
51793;DHT22;37850;53.178;6.376;2023-01-01T06:13:57;11.40;99.90
51793;DHT22;37850;53.178;6.376;2023-01-01T06:16:23;11.40;99.90
51793;DHT22;37850;53.178;6.376;2023-01-01T06:18:52;11.30;99.90
51793;DHT22;37850;53.178;6.376;2023-01-01T06:21:23;11.30;99.90
51793;DHT22;37850;53.178;6.376;2023-01-01T06:23:53;11.30;99.90
51793;DHT22;37850;53.178;6.376;2023-01-01T06:26:25;11.20;99.90
51793;DHT22;37850;53.178;6.376;2023-01-01T06:28:51;11.30;99.90
51793;DHT22;37850;53.178;6.376;2023-01-01T06:31:19;11.20;99.90
51793;DHT22;37850;53.178;6.376;2023-01-01T06:33:45;11.20;99.90
51793;DHT22;37850;53.178;6.376;2023-01-01T06:36:13;11.20;99.90
51793;DHT22;37850;53.178;6.376;2023-01-01T06:38:44;11.20;99.90
51793;DHT22;37850;53.178;6.376;2023-01-01T06:41:13;11.10;99.90
51793;DHT22;37850;53.178;6.376;2023-01-01T06:43:39;11.20;99.90
51793;DHT22;37850;53.178;6.376;2023-01-01T06:46:27;11.10;99.90
51793;DHT22;37850;53.178;6.376;2023-01-01T06:49:00;11.10;99.90
51793;DHT22;37850;53.178;6.376;2023-01-01T06:51:32;11.10;99.90
51793;DHT22;37850;53.178;6.376;2023-01-01T06:53:59;11.10;99.90
51793;DHT22;37850;53.178;6.376;2023-01-01T06:56:25;11.10;99.90
51793;DHT22;37850;53.178;6.376;2023-01-01T06:58:51;11.10;99.90
51793;DHT22;37850;53.178;6.376;2023-01-01T07:01:19;11.10;99.90
51793;DHT22;37850;53.178;6.376;2023-01-01T07:03:56;11.00;99.90
51793;DHT22;37850;53.178;6.376;2023-01-01T07:06:23;11.00;99.90
51793;DHT22;37850;53.178;6.376;2023-01-01T07:08:50;11.00;99.90
51793;DHT22;37850;53.178;6.376;2023-01-01T07:11:16;11.00;99.90
51793;DHT22;37850;53.178;6.376;2023-01-01T07:13:42;11.00;99.90
51793;DHT22;37850;53.178;6.376;2023-01-01T07:16:08;11.00;99.90
51793;DHT22;37850;53.178;6.376;2023-01-01T07:18:34;11.00;99.90
51793;DHT22;37850;53.178;6.376;2023-01-01T07:21:02;11.00;99.90
51793;DHT22;37850;53.178;6.376;2023-01-01T07:23:30;11.00;99.90
51793;DHT22;37850;53.178;6.376;2023-01-01T07:25:56;11.00;99.90
51793;DHT22;37850;53.178;6.376;2023-01-01T07:28:23;10.90;99.90
51793;DHT22;37850;53.178;6.376;2023-01-01T07:30:50;11.00;99.90
51793;DHT22;37850;53.178;6.376;2023-01-01T07:33:22;10.90;99.90
51793;DHT22;37850;53.178;6.376;2023-01-01T07:35:48;10.90;99.90
51793;DHT22;37850;53.178;6.376;2023-01-01T07:38:14;10.90;99.90
51793;DHT22;37850;53.178;6.376;2023-01-01T07:40:41;10.90;99.90
51793;DHT22;37850;53.178;6.376;2023-01-01T07:43:07;10.90;99.90
51793;DHT22;37850;53.178;6.376;2023-01-01T07:45:33;10.90;99.90
51793;DHT22;37850;53.178;6.376;2023-01-01T07:48:00;10.90;99.90
51793;DHT22;37850;53.178;6.376;2023-01-01T07:50:28;11.00;99.90
51793;DHT22;37850;53.178;6.376;2023-01-01T07:52:54;10.90;99.90
51793;DHT22;37850;53.178;6.376;2023-01-01T07:55:20;10.90;99.90
51793;DHT22;37850;53.178;6.376;2023-01-01T07:57:46;10.80;99.90
51793;DHT22;37850;53.178;6.376;2023-01-01T08:00:15;10.80;99.90
51793;DHT22;37850;53.178;6.376;2023-01-01T08:02:42;10.80;99.90
51793;DHT22;37850;53.178;6.376;2023-01-01T08:05:08;10.80;99.90
51793;DHT22;37850;53.178;6.376;2023-01-01T08:07:34;10.80;99.90
51793;DHT22;37850;53.178;6.376;2023-01-01T08:10:00;10.80;99.90
51793;DHT22;37850;53.178;6.376;2023-01-01T08:12:26;10.80;99.90
51793;DHT22;37850;53.178;6.376;2023-01-01T08:14:51;10.80;99.90
51793;DHT22;37850;53.178;6.376;2023-01-01T08:17:17;10.80;99.90
51793;DHT22;37850;53.178;6.376;2023-01-01T08:19:46;10.80;99.90
51793;DHT22;37850;53.178;6.376;2023-01-01T08:22:14;10.80;99.90
51793;DHT22;37850;53.178;6.376;2023-01-01T08:24:40;10.80;99.90
51793;DHT22;37850;53.178;6.376;2023-01-01T08:27:06;11.00;99.90
51793;DHT22;37850;53.178;6.376;2023-01-01T08:29:31;10.80;99.90
51793;DHT22;37850;53.178;6.376;2023-01-01T08:31:57;10.90;99.90
51793;DHT22;37850;53.178;6.376;2023-01-01T08:34:23;10.80;99.90
51793;DHT22;37850;53.178;6.376;2023-01-01T08:36:48;10.80;99.90
51793;DHT22;37850;53.178;6.376;2023-01-01T08:39:17;10.80;99.90
51793;DHT22;37850;53.178;6.376;2023-01-01T08:41:43;10.80;99.90
51793;DHT22;37850;53.178;6.376;2023-01-01T08:44:09;10.80;99.90
51793;DHT22;37850;53.178;6.376;2023-01-01T08:46:34;10.80;99.90
51793;DHT22;37850;53.178;6.376;2023-01-01T08:49:00;10.80;99.90
51793;DHT22;37850;53.178;6.376;2023-01-01T08:51:26;10.80;99.90
51793;DHT22;37850;53.178;6.376;2023-01-01T08:53:51;10.80;99.90
51793;DHT22;37850;53.178;6.376;2023-01-01T08:56:17;10.80;99.90
51793;DHT22;37850;53.178;6.376;2023-01-01T08:58:43;10.80;99.90
51793;DHT22;37850;53.178;6.376;2023-01-01T09:01:09;10.80;99.90
51793;DHT22;37850;53.178;6.376;2023-01-01T09:03:36;10.80;99.90
51793;DHT22;37850;53.178;6.376;2023-01-01T09:06:02;10.80;99.90
51793;DHT22;37850;53.178;6.376;2023-01-01T09:08:28;10.80;99.90
51793;DHT22;37850;53.178;6.376;2023-01-01T09:10:57;10.80;99.90
51793;DHT22;37850;53.178;6.376;2023-01-01T09:13:24;10.80;99.90
51793;DHT22;37850;53.178;6.376;2023-01-01T09:15:50;10.80;99.90
51793;DHT22;37850;53.178;6.376;2023-01-01T09:18:15;10.80;99.90
51793;DHT22;37850;53.178;6.376;2023-01-01T09:20:41;10.80;99.90
51793;DHT22;37850;53.178;6.376;2023-01-01T09:23:07;10.80;99.90
51793;DHT22;37850;53.178;6.376;2023-01-01T09:25:35;10.80;99.90
51793;DHT22;37850;53.178;6.376;2023-01-01T09:28:06;10.80;99.90
51793;DHT22;37850;53.178;6.376;2023-01-01T09:30:32;10.80;99.90
51793;DHT22;37850;53.178;6.376;2023-01-01T09:32:58;10.80;99.90
51793;DHT22;37850;53.178;6.376;2023-01-01T09:35:24;10.80;99.90
51793;DHT22;37850;53.178;6.376;2023-01-01T09:37:50;10.80;99.90
51793;DHT22;37850;53.178;6.376;2023-01-01T09:40:35;10.80;99.90
51793;DHT22;37850;53.178;6.376;2023-01-01T09:46:02;10.80;99.90
51793;DHT22;37850;53.178;6.376;2023-01-01T09:48:31;11.00;99.90
51793;DHT22;37850;53.178;6.376;2023-01-01T09:50:59;10.80;99.90
51793;DHT22;37850;53.178;6.376;2023-01-01T09:56:39;10.80;99.90
51793;DHT22;37850;53.178;6.376;2023-01-01T09:59:09;10.80;99.90
51793;DHT22;37850;53.178;6.376;2023-01-01T10:01:53;10.80;99.90
51793;DHT22;37850;53.178;6.376;2023-01-01T10:10:02;10.90;99.90
51793;DHT22;37850;53.178;6.376;2023-01-01T10:15:26;10.90;99.90
51793;DHT22;37850;53.178;6.376;2023-01-01T10:17:59;11.00;99.90
51793;DHT22;37850;53.178;6.376;2023-01-01T10:20:36;11.00;99.90
51793;DHT22;37850;53.178;6.376;2023-01-01T10:23:24;11.00;99.90
51793;DHT22;37850;53.178;6.376;2023-01-01T10:25:51;11.00;99.90
51793;DHT22;37850;53.178;6.376;2023-01-01T10:34:23;11.10;99.90
51793;DHT22;37850;53.178;6.376;2023-01-01T10:36:57;11.10;99.90
51793;DHT22;37850;53.178;6.376;2023-01-01T10:39:23;11.10;99.90
51793;DHT22;37850;53.178;6.376;2023-01-01T10:41:50;11.00;99.90
51793;DHT22;37850;53.178;6.376;2023-01-01T10:44:25;11.00;99.90
51793;DHT22;37850;53.178;6.376;2023-01-01T10:46:57;11.00;99.90
51793;DHT22;37850;53.178;6.376;2023-01-01T10:49:23;11.00;99.90
51793;DHT22;37850;53.178;6.376;2023-01-01T10:51:51;11.00;99.90
51793;DHT22;37850;53.178;6.376;2023-01-01T10:56:56;11.00;99.90
51793;DHT22;37850;53.178;6.376;2023-01-01T10:59:37;11.00;99.90
51793;DHT22;37850;53.178;6.376;2023-01-01T11:02:22;11.00;99.90
51793;DHT22;37850;53.178;6.376;2023-01-01T11:04:49;11.00;99.90
51793;DHT22;37850;53.178;6.376;2023-01-01T11:07:34;11.00;99.90
51793;DHT22;37850;53.178;6.376;2023-01-01T11:10:02;11.00;99.90
51793;DHT22;37850;53.178;6.376;2023-01-01T11:12:30;11.10;99.90
51793;DHT22;37850;53.178;6.376;2023-01-01T11:14:58;11.00;99.90
51793;DHT22;37850;53.178;6.376;2023-01-01T11:17:42;11.10;99.90
51793;DHT22;37850;53.178;6.376;2023-01-01T11:20:17;11.10;99.90
51793;DHT22;37850;53.178;6.376;2023-01-01T11:22:45;11.10;99.90
51793;DHT22;37850;53.178;6.376;2023-01-01T11:25:18;11.10;99.90
51793;DHT22;37850;53.178;6.376;2023-01-01T11:27:44;11.10;99.90
51793;DHT22;37850;53.178;6.376;2023-01-01T11:30:27;11.30;99.90
51793;DHT22;37850;53.178;6.376;2023-01-01T11:33:03;11.10;99.90
51793;DHT22;37850;53.178;6.376;2023-01-01T11:35:45;11.10;99.90
51793;DHT22;37850;53.178;6.376;2023-01-01T11:38:21;11.10;99.90
51793;DHT22;37850;53.178;6.376;2023-01-01T11:40:55;11.10;99.90
51793;DHT22;37850;53.178;6.376;2023-01-01T11:43:26;11.10;99.90
51793;DHT22;37850;53.178;6.376;2023-01-01T11:45:54;11.10;99.90
51793;DHT22;37850;53.178;6.376;2023-01-01T11:48:26;11.10;99.90
51793;DHT22;37850;53.178;6.376;2023-01-01T11:50:55;11.10;99.90
51793;DHT22;37850;53.178;6.376;2023-01-01T11:56:02;11.10;99.90
51793;DHT22;37850;53.178;6.376;2023-01-01T12:04:08;11.10;99.90
51793;DHT22;37850;53.178;6.376;2023-01-01T12:06:42;10.90;99.90
51793;DHT22;37850;53.178;6.376;2023-01-01T12:09:16;11.20;99.90
51793;DHT22;37850;53.178;6.376;2023-01-01T12:12:10;11.20;99.90
51793;DHT22;37850;53.178;6.376;2023-01-01T12:14:48;11.20;99.90
51793;DHT22;37850;53.178;6.376;2023-01-01T12:23:38;11.30;99.90
51793;DHT22;37850;53.178;6.376;2023-01-01T12:28:37;11.30;99.90
51793;DHT22;37850;53.178;6.376;2023-01-01T12:37:08;11.30;99.90
51793;DHT22;37850;53.178;6.376;2023-01-01T12:47:44;11.40;99.90
51793;DHT22;37850;53.178;6.376;2023-01-01T12:56:34;11.40;99.90
51793;DHT22;37850;53.178;6.376;2023-01-01T12:59:16;11.40;99.90
51793;DHT22;37850;53.178;6.376;2023-01-01T13:01:48;11.40;99.90
51793;DHT22;37850;53.178;6.376;2023-01-01T13:04:19;11.40;99.90
51793;DHT22;37850;53.178;6.376;2023-01-01T13:06:57;11.50;99.90
51793;DHT22;37850;53.178;6.376;2023-01-01T13:09:42;11.40;99.90
51793;DHT22;37850;53.178;6.376;2023-01-01T13:12:19;11.50;99.90
51793;DHT22;37850;53.178;6.376;2023-01-01T13:14:48;11.50;99.90
51793;DHT22;37850;53.178;6.376;2023-01-01T13:17:23;11.50;99.90
51793;DHT22;37850;53.178;6.376;2023-01-01T13:19:56;11.50;99.90
51793;DHT22;37850;53.178;6.376;2023-01-01T13:33:28;11.50;99.90
51793;DHT22;37850;53.178;6.376;2023-01-01T13:38:54;11.50;99.90
51793;DHT22;37850;53.178;6.376;2023-01-01T13:44:20;11.40;99.90
51793;DHT22;37850;53.178;6.376;2023-01-01T14:00:03;11.40;99.90
51793;DHT22;37850;53.178;6.376;2023-01-01T14:02:39;11.40;99.90
51793;DHT22;37850;53.178;6.376;2023-01-01T14:07:57;11.30;99.90
51793;DHT22;37850;53.178;6.376;2023-01-01T14:10:35;11.30;99.90
51793;DHT22;37850;53.178;6.376;2023-01-01T14:15:32;11.30;99.90
51793;DHT22;37850;53.178;6.376;2023-01-01T14:18:00;11.40;99.90
51793;DHT22;37850;53.178;6.376;2023-01-01T14:20:40;11.30;99.90
51793;DHT22;37850;53.178;6.376;2023-01-01T14:23:10;11.20;99.90
51793;DHT22;37850;53.178;6.376;2023-01-01T14:25:39;11.20;99.90
51793;DHT22;37850;53.178;6.376;2023-01-01T14:28:20;11.30;99.90
51793;DHT22;37850;53.178;6.376;2023-01-01T14:30:49;11.20;99.90
51793;DHT22;37850;53.178;6.376;2023-01-01T14:33:30;11.20;99.90
51793;DHT22;37850;53.178;6.376;2023-01-01T14:36:02;11.20;99.90
51793;DHT22;37850;53.178;6.376;2023-01-01T14:38:30;11.20;99.90
51793;DHT22;37850;53.178;6.376;2023-01-01T14:43:38;11.10;99.90
51793;DHT22;37850;53.178;6.376;2023-01-01T14:46:06;11.10;99.90
51793;DHT22;37850;53.178;6.376;2023-01-01T14:48:33;11.10;99.90
51793;DHT22;37850;53.178;6.376;2023-01-01T14:50:59;11.10;99.90
51793;DHT22;37850;53.178;6.376;2023-01-01T14:53:33;11.10;99.90
51793;DHT22;37850;53.178;6.376;2023-01-01T14:55:58;11.00;99.90
51793;DHT22;37850;53.178;6.376;2023-01-01T14:58:27;11.00;99.90
51793;DHT22;37850;53.178;6.376;2023-01-01T15:00:58;11.00;99.90
51793;DHT22;37850;53.178;6.376;2023-01-01T15:03:37;11.00;99.90
51793;DHT22;37850;53.178;6.376;2023-01-01T15:06:03;11.00;99.90
51793;DHT22;37850;53.178;6.376;2023-01-01T15:08:31;11.00;99.90
51793;DHT22;37850;53.178;6.376;2023-01-01T15:10:57;11.00;99.90
51793;DHT22;37850;53.178;6.376;2023-01-01T15:13:25;11.00;99.90
51793;DHT22;37850;53.178;6.376;2023-01-01T15:15:53;10.90;99.90
51793;DHT22;37850;53.178;6.376;2023-01-01T15:21:17;10.80;99.90
51793;DHT22;37850;53.178;6.376;2023-01-01T15:24:12;10.80;99.90
51793;DHT22;37850;53.178;6.376;2023-01-01T15:26:53;10.80;99.90
51793;DHT22;37850;53.178;6.376;2023-01-01T15:29:32;10.80;99.90
51793;DHT22;37850;53.178;6.376;2023-01-01T15:32:02;10.80;99.90
51793;DHT22;37850;53.178;6.376;2023-01-01T15:34:30;10.80;99.90
51793;DHT22;37850;53.178;6.376;2023-01-01T15:39:45;10.70;99.90
51793;DHT22;37850;53.178;6.376;2023-01-01T15:42:26;10.70;99.90
51793;DHT22;37850;53.178;6.376;2023-01-01T15:44:53;10.70;99.90
51793;DHT22;37850;53.178;6.376;2023-01-01T15:47:19;10.60;99.90
51793;DHT22;37850;53.178;6.376;2023-01-01T15:50:06;10.60;99.90
51793;DHT22;37850;53.178;6.376;2023-01-01T15:52:34;10.60;99.90
51793;DHT22;37850;53.178;6.376;2023-01-01T15:55:00;10.70;99.90
51793;DHT22;37850;53.178;6.376;2023-01-01T15:57:26;10.60;99.90
51793;DHT22;37850;53.178;6.376;2023-01-01T15:59:52;10.60;99.90
51793;DHT22;37850;53.178;6.376;2023-01-01T16:02:30;10.60;99.90
51793;DHT22;37850;53.178;6.376;2023-01-01T16:04:57;10.50;99.90
51793;DHT22;37850;53.178;6.376;2023-01-01T16:07:24;10.60;99.90
51793;DHT22;37850;53.178;6.376;2023-01-01T16:09:52;10.50;99.90
51793;DHT22;37850;53.178;6.376;2023-01-01T16:12:18;10.50;99.90
51793;DHT22;37850;53.178;6.376;2023-01-01T16:14:45;10.50;99.90
51793;DHT22;37850;53.178;6.376;2023-01-01T16:17:16;10.50;99.90
51793;DHT22;37850;53.178;6.376;2023-01-01T16:19:43;10.50;99.90
51793;DHT22;37850;53.178;6.376;2023-01-01T16:22:13;10.50;99.90
51793;DHT22;37850;53.178;6.376;2023-01-01T16:24:41;10.50;99.90
51793;DHT22;37850;53.178;6.376;2023-01-01T16:27:07;10.50;99.90
51793;DHT22;37850;53.178;6.376;2023-01-01T16:29:33;10.50;99.90
51793;DHT22;37850;53.178;6.376;2023-01-01T16:31:59;10.50;99.90
51793;DHT22;37850;53.178;6.376;2023-01-01T16:34:24;10.40;99.90
51793;DHT22;37850;53.178;6.376;2023-01-01T16:36:50;10.40;99.90
51793;DHT22;37850;53.178;6.376;2023-01-01T16:39:16;10.40;99.90
51793;DHT22;37850;53.178;6.376;2023-01-01T16:41:42;10.40;99.90
51793;DHT22;37850;53.178;6.376;2023-01-01T16:44:13;10.40;99.90
51793;DHT22;37850;53.178;6.376;2023-01-01T16:46:39;10.40;99.90
51793;DHT22;37850;53.178;6.376;2023-01-01T16:49:04;10.40;99.90
51793;DHT22;37850;53.178;6.376;2023-01-01T16:51:30;10.40;99.90
51793;DHT22;37850;53.178;6.376;2023-01-01T16:53:57;10.30;99.90
51793;DHT22;37850;53.178;6.376;2023-01-01T16:56:25;10.30;99.90
51793;DHT22;37850;53.178;6.376;2023-01-01T16:58:51;10.40;99.90
51793;DHT22;37850;53.178;6.376;2023-01-01T17:01:19;10.40;99.90
51793;DHT22;37850;53.178;6.376;2023-01-01T17:03:46;10.30;99.90
51793;DHT22;37850;53.178;6.376;2023-01-01T17:06:11;10.30;99.90
51793;DHT22;37850;53.178;6.376;2023-01-01T17:08:38;10.30;99.90
51793;DHT22;37850;53.178;6.376;2023-01-01T17:11:11;10.30;99.90
51793;DHT22;37850;53.178;6.376;2023-01-01T17:13:39;10.30;99.90
51793;DHT22;37850;53.178;6.376;2023-01-01T17:16:05;10.30;99.90
51793;DHT22;37850;53.178;6.376;2023-01-01T17:18:31;10.30;99.90
51793;DHT22;37850;53.178;6.376;2023-01-01T17:21:04;10.30;99.90
51793;DHT22;37850;53.178;6.376;2023-01-01T17:23:38;10.30;99.90
51793;DHT22;37850;53.178;6.376;2023-01-01T17:26:12;10.30;99.90
51793;DHT22;37850;53.178;6.376;2023-01-01T17:28:40;10.30;99.90
51793;DHT22;37850;53.178;6.376;2023-01-01T17:31:07;10.30;99.90
51793;DHT22;37850;53.178;6.376;2023-01-01T17:33:34;10.30;99.90
51793;DHT22;37850;53.178;6.376;2023-01-01T17:36:00;10.30;99.90
51793;DHT22;37850;53.178;6.376;2023-01-01T17:38:26;10.30;99.90
51793;DHT22;37850;53.178;6.376;2023-01-01T17:40:59;10.30;99.90
51793;DHT22;37850;53.178;6.376;2023-01-01T17:43:25;10.30;99.90
51793;DHT22;37850;53.178;6.376;2023-01-01T17:45:51;10.30;99.90
51793;DHT22;37850;53.178;6.376;2023-01-01T17:48:16;10.30;99.90
51793;DHT22;37850;53.178;6.376;2023-01-01T17:50:43;10.30;99.90
51793;DHT22;37850;53.178;6.376;2023-01-01T17:53:12;10.30;99.90